sensor_id;sensor_type;location;lat;lon;timestamp;P1;durP1;ratioP1;P2;durP2;ratioP2
7051;SDS011;3567;52.444;13.556;2023-12-22T00:01:06;12.82;;;2.00;;
7051;SDS011;3567;52.444;13.556;2023-12-22T00:03:31;7.22;;;1.80;;
7051;SDS011;3567;52.444;13.556;2023-12-22T00:05:56;7.53;;;1.92;;
7051;SDS011;3567;52.444;13.556;2023-12-22T00:08:22;4.80;;;1.20;;
7051;SDS011;3567;52.444;13.556;2023-12-22T00:10:48;3.28;;;1.05;;
7051;SDS011;3567;52.444;13.556;2023-12-22T00:13:14;8.90;;;1.20;;
7051;SDS011;3567;52.444;13.556;2023-12-22T00:15:39;6.97;;;1.42;;
7051;SDS011;3567;52.444;13.556;2023-12-22T00:18:05;12.38;;;1.48;;
7051;SDS011;3567;52.444;13.556;2023-12-22T00:20:31;8.82;;;1.70;;
7051;SDS011;3567;52.444;13.556;2023-12-22T00:22:56;8.15;;;1.40;;
7051;SDS011;3567;52.444;13.556;2023-12-22T00:25:22;8.05;;;1.42;;
7051;SDS011;3567;52.444;13.556;2023-12-22T00:27:47;6.68;;;1.30;;
7051;SDS011;3567;52.444;13.556;2023-12-22T00:30:12;13.02;;;1.23;;
7051;SDS011;3567;52.444;13.556;2023-12-22T00:32:38;10.77;;;1.73;;
7051;SDS011;3567;52.444;13.556;2023-12-22T00:35:03;11.02;;;1.80;;
7051;SDS011;3567;52.444;13.556;2023-12-22T00:37:29;9.65;;;2.17;;
7051;SDS011;3567;52.444;13.556;2023-12-22T00:39:55;12.43;;;1.77;;
7051;SDS011;3567;52.444;13.556;2023-12-22T00:42:20;8.23;;;1.98;;
7051;SDS011;3567;52.444;13.556;2023-12-22T00:44:45;14.10;;;2.17;;
7051;SDS011;3567;52.444;13.556;2023-12-22T00:47:11;11.75;;;2.60;;
7051;SDS011;3567;52.444;13.556;2023-12-22T00:49:37;13.70;;;2.05;;
7051;SDS011;3567;52.444;13.556;2023-12-22T00:52:02;14.82;;;1.98;;
7051;SDS011;3567;52.444;13.556;2023-12-22T00:54:28;15.90;;;2.75;;
7051;SDS011;3567;52.444;13.556;2023-12-22T00:56:56;11.90;;;2.45;;
7051;SDS011;3567;52.444;13.556;2023-12-22T00:59:22;16.08;;;2.40;;
7051;SDS011;3567;52.444;13.556;2023-12-22T01:01:48;11.77;;;2.22;;
7051;SDS011;3567;52.444;13.556;2023-12-22T01:04:13;7.53;;;1.10;;
7051;SDS011;3567;52.444;13.556;2023-12-22T01:06:38;11.77;;;2.45;;
7051;SDS011;3567;52.444;13.556;2023-12-22T01:09:04;10.50;;;1.90;;
7051;SDS011;3567;52.444;13.556;2023-12-22T01:11:30;16.15;;;1.90;;
7051;SDS011;3567;52.444;13.556;2023-12-22T01:13:55;7.45;;;1.95;;
7051;SDS011;3567;52.444;13.556;2023-12-22T01:16:21;10.70;;;1.30;;
7051;SDS011;3567;52.444;13.556;2023-12-22T01:18:47;9.52;;;1.33;;
7051;SDS011;3567;52.444;13.556;2023-12-22T01:21:13;12.95;;;1.95;;
7051;SDS011;3567;52.444;13.556;2023-12-22T01:23:39;11.15;;;1.42;;
7051;SDS011;3567;52.444;13.556;2023-12-22T01:26:04;6.80;;;0.90;;
7051;SDS011;3567;52.444;13.556;2023-12-22T01:28:29;8.18;;;1.30;;
7051;SDS011;3567;52.444;13.556;2023-12-22T01:30:54;8.48;;;1.73;;
7051;SDS011;3567;52.444;13.556;2023-12-22T01:33:20;14.63;;;2.03;;
7051;SDS011;3567;52.444;13.556;2023-12-22T01:35:45;7.95;;;1.63;;
7051;SDS011;3567;52.444;13.556;2023-12-22T01:38:10;10.88;;;2.25;;
7051;SDS011;3567;52.444;13.556;2023-12-22T01:40:36;12.85;;;2.08;;
7051;SDS011;3567;52.444;13.556;2023-12-22T01:43:01;6.45;;;1.48;;
7051;SDS011;3567;52.444;13.556;2023-12-22T01:45:27;9.70;;;1.83;;
7051;SDS011;3567;52.444;13.556;2023-12-22T01:47:52;12.23;;;1.48;;
7051;SDS011;3567;52.444;13.556;2023-12-22T01:50:19;8.43;;;2.05;;
7051;SDS011;3567;52.444;13.556;2023-12-22T01:52:45;19.58;;;2.00;;
7051;SDS011;3567;52.444;13.556;2023-12-22T01:55:11;13.18;;;1.88;;
7051;SDS011;3567;52.444;13.556;2023-12-22T01:57:38;12.27;;;1.27;;
7051;SDS011;3567;52.444;13.556;2023-12-22T02:00:06;8.98;;;1.98;;
7051;SDS011;3567;52.444;13.556;2023-12-22T02:02:33;8.05;;;1.77;;
7051;SDS011;3567;52.444;13.556;2023-12-22T02:04:58;22.88;;;3.03;;
7051;SDS011;3567;52.444;13.556;2023-12-22T02:07:24;20.17;;;2.65;;
7051;SDS011;3567;52.444;13.556;2023-12-22T02:09:50;13.48;;;1.70;;
7051;SDS011;3567;52.444;13.556;2023-12-22T02:12:15;10.88;;;1.70;;
7051;SDS011;3567;52.444;13.556;2023-12-22T02:14:41;15.32;;;2.35;;
7051;SDS011;3567;52.444;13.556;2023-12-22T02:17:26;15.60;;;1.95;;
7051;SDS011;3567;52.444;13.556;2023-12-22T02:19:57;8.00;;;1.75;;
7051;SDS011;3567;52.444;13.556;2023-12-22T02:22:23;13.35;;;1.27;;
7051;SDS011;3567;52.444;13.556;2023-12-22T02:24:49;10.20;;;1.70;;
7051;SDS011;3567;52.444;13.556;2023-12-22T02:29:50;10.77;;;1.77;;
7051;SDS011;3567;52.444;13.556;2023-12-22T02:32:23;8.90;;;1.20;;
7051;SDS011;3567;52.444;13.556;2023-12-22T02:34:56;12.90;;;1.77;;
7051;SDS011;3567;52.444;13.556;2023-12-22T02:37:22;13.18;;;2.38;;
7051;SDS011;3567;52.444;13.556;2023-12-22T02:39:50;8.63;;;2.65;;
7051;SDS011;3567;52.444;13.556;2023-12-22T02:42:17;13.05;;;1.77;;
7051;SDS011;3567;52.444;13.556;2023-12-22T02:44:44;9.38;;;2.55;;
7051;SDS011;3567;52.444;13.556;2023-12-22T02:47:10;8.65;;;1.58;;
7051;SDS011;3567;52.444;13.556;2023-12-22T02:49:36;10.00;;;1.75;;
7051;SDS011;3567;52.444;13.556;2023-12-22T02:52:04;8.15;;;2.17;;
7051;SDS011;3567;52.444;13.556;2023-12-22T02:54:30;12.07;;;1.90;;
7051;SDS011;3567;52.444;13.556;2023-12-22T02:56:56;9.18;;;1.52;;
7051;SDS011;3567;52.444;13.556;2023-12-22T02:59:23;15.95;;;2.67;;
7051;SDS011;3567;52.444;13.556;2023-12-22T03:01:50;8.05;;;1.52;;
7051;SDS011;3567;52.444;13.556;2023-12-22T03:04:15;9.93;;;1.48;;
7051;SDS011;3567;52.444;13.556;2023-12-22T03:06:42;9.70;;;1.08;;
7051;SDS011;3567;52.444;13.556;2023-12-22T03:09:08;9.02;;;1.13;;
7051;SDS011;3567;52.444;13.556;2023-12-22T03:11:33;8.27;;;1.35;;
7051;SDS011;3567;52.444;13.556;2023-12-22T03:14:01;10.10;;;1.58;;
7051;SDS011;3567;52.444;13.556;2023-12-22T03:16:27;11.93;;;1.23;;
7051;SDS011;3567;52.444;13.556;2023-12-22T03:18:52;11.85;;;1.58;;
7051;SDS011;3567;52.444;13.556;2023-12-22T03:21:18;8.07;;;1.00;;
7051;SDS011;3567;52.444;13.556;2023-12-22T03:23:44;6.20;;;1.23;;
7051;SDS011;3567;52.444;13.556;2023-12-22T03:26:09;8.75;;;1.13;;
7051;SDS011;3567;52.444;13.556;2023-12-22T03:28:35;8.27;;;1.77;;
7051;SDS011;3567;52.444;13.556;2023-12-22T03:31:04;9.27;;;1.27;;
7051;SDS011;3567;52.444;13.556;2023-12-22T03:33:32;5.30;;;1.13;;
7051;SDS011;3567;52.444;13.556;2023-12-22T03:35:58;6.40;;;1.00;;
7051;SDS011;3567;52.444;13.556;2023-12-22T03:38:24;9.73;;;1.17;;
7051;SDS011;3567;52.444;13.556;2023-12-22T03:40:49;10.35;;;1.55;;
7051;SDS011;3567;52.444;13.556;2023-12-22T03:43:17;4.63;;;0.93;;
7051;SDS011;3567;52.444;13.556;2023-12-22T03:45:43;11.63;;;1.50;;
7051;SDS011;3567;52.444;13.556;2023-12-22T03:48:08;5.28;;;1.98;;
7051;SDS011;3567;52.444;13.556;2023-12-22T03:50:34;10.90;;;1.67;;
7051;SDS011;3567;52.444;13.556;2023-12-22T03:52:59;8.07;;;1.50;;
7051;SDS011;3567;52.444;13.556;2023-12-22T03:55:24;10.30;;;2.50;;
7051;SDS011;3567;52.444;13.556;2023-12-22T03:57:50;8.60;;;1.45;;
7051;SDS011;3567;52.444;13.556;2023-12-22T04:00:15;7.88;;;1.15;;
7051;SDS011;3567;52.444;13.556;2023-12-22T04:02:41;7.75;;;1.15;;
7051;SDS011;3567;52.444;13.556;2023-12-22T04:05:07;7.80;;;1.20;;
7051;SDS011;3567;52.444;13.556;2023-12-22T04:07:32;7.32;;;1.35;;
7051;SDS011;3567;52.444;13.556;2023-12-22T04:09:57;4.35;;;0.80;;
7051;SDS011;3567;52.444;13.556;2023-12-22T04:12:23;4.13;;;0.40;;
7051;SDS011;3567;52.444;13.556;2023-12-22T04:14:48;4.63;;;0.60;;
7051;SDS011;3567;52.444;13.556;2023-12-22T04:17:13;5.38;;;0.60;;
7051;SDS011;3567;52.444;13.556;2023-12-22T04:19:39;2.17;;;0.63;;
7051;SDS011;3567;52.444;13.556;2023-12-22T04:22:04;5.32;;;0.70;;
7051;SDS011;3567;52.444;13.556;2023-12-22T04:24:29;3.15;;;0.60;;
7051;SDS011;3567;52.444;13.556;2023-12-22T04:26:55;3.33;;;0.60;;
7051;SDS011;3567;52.444;13.556;2023-12-22T04:29:20;2.50;;;0.47;;
7051;SDS011;3567;52.444;13.556;2023-12-22T04:31:45;2.05;;;0.63;;
7051;SDS011;3567;52.444;13.556;2023-12-22T04:34:13;3.67;;;0.50;;
7051;SDS011;3567;52.444;13.556;2023-12-22T04:36:39;2.45;;;0.70;;
7051;SDS011;3567;52.444;13.556;2023-12-22T04:39:05;4.22;;;0.57;;
7051;SDS011;3567;52.444;13.556;2023-12-22T04:41:30;5.45;;;0.60;;
7051;SDS011;3567;52.444;13.556;2023-12-22T04:43:57;4.55;;;0.55;;
7051;SDS011;3567;52.444;13.556;2023-12-22T04:46:22;2.03;;;0.52;;
7051;SDS011;3567;52.444;13.556;2023-12-22T04:48:48;4.95;;;0.90;;
7051;SDS011;3567;52.444;13.556;2023-12-22T04:51:13;3.72;;;0.50;;
7051;SDS011;3567;52.444;13.556;2023-12-22T04:53:38;3.85;;;1.05;;
7051;SDS011;3567;52.444;13.556;2023-12-22T04:56:04;4.22;;;1.35;;
7051;SDS011;3567;52.444;13.556;2023-12-22T04:58:29;5.07;;;0.70;;
7051;SDS011;3567;52.444;13.556;2023-12-22T05:00:55;7.20;;;0.70;;
7051;SDS011;3567;52.444;13.556;2023-12-22T05:03:20;3.38;;;0.60;;
7051;SDS011;3567;52.444;13.556;2023-12-22T05:05:45;5.38;;;0.45;;
7051;SDS011;3567;52.444;13.556;2023-12-22T05:08:13;3.03;;;0.50;;
7051;SDS011;3567;52.444;13.556;2023-12-22T05:10:41;7.38;;;0.50;;
7051;SDS011;3567;52.444;13.556;2023-12-22T05:13:06;2.55;;;0.30;;
7051;SDS011;3567;52.444;13.556;2023-12-22T05:15:35;1.10;;;0.30;;
7051;SDS011;3567;52.444;13.556;2023-12-22T05:18:00;3.03;;;0.80;;
7051;SDS011;3567;52.444;13.556;2023-12-22T05:20:30;2.17;;;0.40;;
7051;SDS011;3567;52.444;13.556;2023-12-22T05:22:58;1.23;;;0.70;;
7051;SDS011;3567;52.444;13.556;2023-12-22T05:25:24;5.00;;;0.45;;
7051;SDS011;3567;52.444;13.556;2023-12-22T05:27:49;4.32;;;0.45;;
7051;SDS011;3567;52.444;13.556;2023-12-22T05:30:17;2.70;;;0.30;;
7051;SDS011;3567;52.444;13.556;2023-12-22T05:32:42;9.93;;;0.75;;
7051;SDS011;3567;52.444;13.556;2023-12-22T05:35:09;2.75;;;0.43;;
7051;SDS011;3567;52.444;13.556;2023-12-22T05:37:35;6.00;;;0.47;;
7051;SDS011;3567;52.444;13.556;2023-12-22T05:40:01;7.78;;;0.52;;
7051;SDS011;3567;52.444;13.556;2023-12-22T05:42:27;5.90;;;0.40;;
7051;SDS011;3567;52.444;13.556;2023-12-22T05:44:52;3.40;;;0.57;;
7051;SDS011;3567;52.444;13.556;2023-12-22T05:47:17;4.57;;;0.52;;
7051;SDS011;3567;52.444;13.556;2023-12-22T05:49:43;3.95;;;0.60;;
7051;SDS011;3567;52.444;13.556;2023-12-22T05:52:08;5.68;;;0.75;;
7051;SDS011;3567;52.444;13.556;2023-12-22T05:54:35;2.05;;;0.43;;
7051;SDS011;3567;52.444;13.556;2023-12-22T05:57:00;4.72;;;0.40;;
7051;SDS011;3567;52.444;13.556;2023-12-22T05:59:26;4.13;;;0.73;;
7051;SDS011;3567;52.444;13.556;2023-12-22T06:01:55;6.40;;;0.57;;
7051;SDS011;3567;52.444;13.556;2023-12-22T06:04:20;3.53;;;1.08;;
7051;SDS011;3567;52.444;13.556;2023-12-22T06:06:46;2.67;;;0.57;;
7051;SDS011;3567;52.444;13.556;2023-12-22T06:09:11;3.22;;;0.43;;
7051;SDS011;3567;52.444;13.556;2023-12-22T06:11:38;7.47;;;1.33;;
7051;SDS011;3567;52.444;13.556;2023-12-22T06:14:05;1.73;;;0.68;;
7051;SDS011;3567;52.444;13.556;2023-12-22T06:16:30;4.88;;;1.25;;
7051;SDS011;3567;52.444;13.556;2023-12-22T06:18:56;9.68;;;0.75;;
7051;SDS011;3567;52.444;13.556;2023-12-22T06:21:21;7.50;;;1.23;;
7051;SDS011;3567;52.444;13.556;2023-12-22T06:23:47;2.95;;;0.65;;
7051;SDS011;3567;52.444;13.556;2023-12-22T06:26:12;2.95;;;1.02;;
7051;SDS011;3567;52.444;13.556;2023-12-22T06:28:38;4.43;;;0.70;;
7051;SDS011;3567;52.444;13.556;2023-12-22T06:31:05;2.05;;;0.50;;
7051;SDS011;3567;52.444;13.556;2023-12-22T06:33:34;5.95;;;0.55;;
7051;SDS011;3567;52.444;13.556;2023-12-22T06:36:00;3.17;;;0.57;;
7051;SDS011;3567;52.444;13.556;2023-12-22T06:38:25;3.05;;;0.55;;
7051;SDS011;3567;52.444;13.556;2023-12-22T06:40:50;9.32;;;0.73;;
7051;SDS011;3567;52.444;13.556;2023-12-22T06:43:16;4.60;;;0.47;;
7051;SDS011;3567;52.444;13.556;2023-12-22T06:45:41;2.05;;;0.43;;
7051;SDS011;3567;52.444;13.556;2023-12-22T06:48:07;5.47;;;1.70;;
7051;SDS011;3567;52.444;13.556;2023-12-22T06:50:34;3.33;;;0.63;;
7051;SDS011;3567;52.444;13.556;2023-12-22T06:53:01;1.98;;;0.30;;
7051;SDS011;3567;52.444;13.556;2023-12-22T06:55:27;4.32;;;0.70;;
7051;SDS011;3567;52.444;13.556;2023-12-22T06:57:52;1.10;;;0.35;;
7051;SDS011;3567;52.444;13.556;2023-12-22T07:00:19;3.00;;;0.68;;
7051;SDS011;3567;52.444;13.556;2023-12-22T07:02:47;5.40;;;0.70;;
7051;SDS011;3567;52.444;13.556;2023-12-22T07:07:47;1.85;;;0.55;;
7051;SDS011;3567;52.444;13.556;2023-12-22T07:10:12;5.07;;;0.40;;
7051;SDS011;3567;52.444;13.556;2023-12-22T07:12:37;3.50;;;0.63;;
7051;SDS011;3567;52.444;13.556;2023-12-22T07:15:04;6.18;;;0.75;;
7051;SDS011;3567;52.444;13.556;2023-12-22T07:17:31;5.88;;;0.70;;
7051;SDS011;3567;52.444;13.556;2023-12-22T07:20:00;9.63;;;0.35;;
7051;SDS011;3567;52.444;13.556;2023-12-22T07:22:28;7.18;;;0.75;;
7051;SDS011;3567;52.444;13.556;2023-12-22T07:24:53;2.97;;;0.40;;
7051;SDS011;3567;52.444;13.556;2023-12-22T07:27:20;5.85;;;0.50;;
7051;SDS011;3567;52.444;13.556;2023-12-22T07:29:49;4.28;;;0.75;;
7051;SDS011;3567;52.444;13.556;2023-12-22T07:32:14;5.10;;;1.02;;
7051;SDS011;3567;52.444;13.556;2023-12-22T07:34:40;5.90;;;0.80;;
7051;SDS011;3567;52.444;13.556;2023-12-22T07:37:05;8.45;;;1.05;;
7051;SDS011;3567;52.444;13.556;2023-12-22T07:39:30;3.17;;;0.60;;
7051;SDS011;3567;52.444;13.556;2023-12-22T07:41:56;7.43;;;1.20;;
7051;SDS011;3567;52.444;13.556;2023-12-22T07:44:21;5.70;;;0.70;;
7051;SDS011;3567;52.444;13.556;2023-12-22T07:46:55;10.75;;;1.15;;
7051;SDS011;3567;52.444;13.556;2023-12-22T07:49:24;5.28;;;0.60;;
7051;SDS011;3567;52.444;13.556;2023-12-22T07:51:50;10.27;;;0.70;;
7051;SDS011;3567;52.444;13.556;2023-12-22T07:54:17;3.35;;;0.50;;
7051;SDS011;3567;52.444;13.556;2023-12-22T07:56:42;8.85;;;1.30;;
7051;SDS011;3567;52.444;13.556;2023-12-22T07:59:08;3.47;;;0.82;;
7051;SDS011;3567;52.444;13.556;2023-12-22T08:01:33;5.00;;;1.52;;
7051;SDS011;3567;52.444;13.556;2023-12-22T08:03:58;7.43;;;0.90;;
7051;SDS011;3567;52.444;13.556;2023-12-22T08:06:24;9.35;;;1.08;;
7051;SDS011;3567;52.444;13.556;2023-12-22T08:08:49;4.78;;;0.85;;
7051;SDS011;3567;52.444;13.556;2023-12-22T08:11:14;5.50;;;0.98;;
7051;SDS011;3567;52.444;13.556;2023-12-22T08:13:40;4.93;;;0.80;;
7051;SDS011;3567;52.444;13.556;2023-12-22T08:16:05;5.20;;;1.02;;
7051;SDS011;3567;52.444;13.556;2023-12-22T08:18:30;5.82;;;0.80;;
7051;SDS011;3567;52.444;13.556;2023-12-22T08:20:56;7.93;;;1.23;;
7051;SDS011;3567;52.444;13.556;2023-12-22T08:23:21;2.50;;;0.65;;
7051;SDS011;3567;52.444;13.556;2023-12-22T08:25:47;2.13;;;0.60;;
7051;SDS011;3567;52.444;13.556;2023-12-22T08:28:13;5.78;;;0.60;;
7051;SDS011;3567;52.444;13.556;2023-12-22T08:30:38;3.13;;;0.50;;
7051;SDS011;3567;52.444;13.556;2023-12-22T08:33:04;1.23;;;0.47;;
7051;SDS011;3567;52.444;13.556;2023-12-22T08:35:29;3.58;;;0.50;;
7051;SDS011;3567;52.444;13.556;2023-12-22T08:37:55;1.08;;;0.45;;
7051;SDS011;3567;52.444;13.556;2023-12-22T08:40:20;3.05;;;0.85;;
7051;SDS011;3567;52.444;13.556;2023-12-22T08:42:51;7.93;;;1.02;;
7051;SDS011;3567;52.444;13.556;2023-12-22T08:45:19;5.78;;;0.80;;
7051;SDS011;3567;52.444;13.556;2023-12-22T08:47:46;6.55;;;1.00;;
7051;SDS011;3567;52.444;13.556;2023-12-22T08:50:11;11.05;;;1.05;;
7051;SDS011;3567;52.444;13.556;2023-12-22T08:52:38;10.05;;;1.00;;
7051;SDS011;3567;52.444;13.556;2023-12-22T08:55:03;8.15;;;1.63;;
7051;SDS011;3567;52.444;13.556;2023-12-22T08:57:30;4.55;;;0.73;;
7051;SDS011;3567;52.444;13.556;2023-12-22T08:59:56;11.88;;;1.38;;
7051;SDS011;3567;52.444;13.556;2023-12-22T09:02:22;9.40;;;1.58;;
7051;SDS011;3567;52.444;13.556;2023-12-22T09:04:47;8.85;;;1.48;;
7051;SDS011;3567;52.444;13.556;2023-12-22T09:07:13;8.30;;;0.90;;
7051;SDS011;3567;52.444;13.556;2023-12-22T09:09:38;11.32;;;1.88;;
7051;SDS011;3567;52.444;13.556;2023-12-22T09:12:05;6.75;;;0.95;;
7051;SDS011;3567;52.444;13.556;2023-12-22T09:14:30;8.75;;;1.23;;
7051;SDS011;3567;52.444;13.556;2023-12-22T09:16:56;8.98;;;1.02;;
7051;SDS011;3567;52.444;13.556;2023-12-22T09:19:21;8.35;;;1.58;;
7051;SDS011;3567;52.444;13.556;2023-12-22T09:21:46;7.53;;;1.10;;
7051;SDS011;3567;52.444;13.556;2023-12-22T09:24:12;14.02;;;1.20;;
7051;SDS011;3567;52.444;13.556;2023-12-22T09:26:37;9.93;;;1.55;;
7051;SDS011;3567;52.444;13.556;2023-12-22T09:29:03;6.38;;;0.93;;
7051;SDS011;3567;52.444;13.556;2023-12-22T09:31:28;7.07;;;1.33;;
7051;SDS011;3567;52.444;13.556;2023-12-22T09:33:53;10.40;;;1.73;;
7051;SDS011;3567;52.444;13.556;2023-12-22T09:36:19;5.55;;;0.80;;
7051;SDS011;3567;52.444;13.556;2023-12-22T09:38:44;4.43;;;1.10;;
7051;SDS011;3567;52.444;13.556;2023-12-22T09:41:09;7.35;;;0.65;;
7051;SDS011;3567;52.444;13.556;2023-12-22T09:43:35;10.85;;;1.10;;
7051;SDS011;3567;52.444;13.556;2023-12-22T09:46:04;9.88;;;1.58;;
7051;SDS011;3567;52.444;13.556;2023-12-22T09:48:31;9.63;;;1.20;;
7051;SDS011;3567;52.444;13.556;2023-12-22T09:50:58;7.85;;;0.82;;
7051;SDS011;3567;52.444;13.556;2023-12-22T09:53:25;17.33;;;2.00;;
7051;SDS011;3567;52.444;13.556;2023-12-22T09:55:51;17.02;;;2.05;;
7051;SDS011;3567;52.444;13.556;2023-12-22T09:58:19;13.77;;;2.42;;
7051;SDS011;3567;52.444;13.556;2023-12-22T10:00:44;8.90;;;1.48;;
7051;SDS011;3567;52.444;13.556;2023-12-22T10:03:10;11.95;;;1.50;;
7051;SDS011;3567;52.444;13.556;2023-12-22T10:05:37;8.93;;;1.85;;
7051;SDS011;3567;52.444;13.556;2023-12-22T10:08:04;6.15;;;1.90;;
7051;SDS011;3567;52.444;13.556;2023-12-22T10:10:30;10.73;;;2.10;;
7051;SDS011;3567;52.444;13.556;2023-12-22T10:12:57;10.70;;;1.35;;
7051;SDS011;3567;52.444;13.556;2023-12-22T10:15:24;12.57;;;1.80;;
7051;SDS011;3567;52.444;13.556;2023-12-22T10:17:51;14.50;;;2.22;;
7051;SDS011;3567;52.444;13.556;2023-12-22T10:20:17;9.85;;;1.83;;
7051;SDS011;3567;52.444;13.556;2023-12-22T10:22:42;9.43;;;1.65;;
7051;SDS011;3567;52.444;13.556;2023-12-22T10:25:08;6.65;;;2.05;;
7051;SDS011;3567;52.444;13.556;2023-12-22T10:27:34;11.75;;;2.15;;
7051;SDS011;3567;52.444;13.556;2023-12-22T10:30:00;12.45;;;2.20;;
7051;SDS011;3567;52.444;13.556;2023-12-22T10:32:26;14.68;;;1.80;;
7051;SDS011;3567;52.444;13.556;2023-12-22T10:34:52;14.40;;;2.40;;
7051;SDS011;3567;52.444;13.556;2023-12-22T10:37:17;12.00;;;1.98;;
7051;SDS011;3567;52.444;13.556;2023-12-22T10:39:43;10.35;;;1.85;;
7051;SDS011;3567;52.444;13.556;2023-12-22T10:42:13;12.73;;;2.58;;
7051;SDS011;3567;52.444;13.556;2023-12-22T10:44:39;17.35;;;1.95;;
7051;SDS011;3567;52.444;13.556;2023-12-22T10:47:05;15.43;;;2.30;;
7051;SDS011;3567;52.444;13.556;2023-12-22T10:49:31;12.25;;;2.42;;
7051;SDS011;3567;52.444;13.556;2023-12-22T10:51:57;10.13;;;1.83;;
7051;SDS011;3567;52.444;13.556;2023-12-22T10:54:22;10.73;;;1.90;;
7051;SDS011;3567;52.444;13.556;2023-12-22T10:56:47;11.13;;;1.48;;
7051;SDS011;3567;52.444;13.556;2023-12-22T10:59:16;15.30;;;1.77;;
7051;SDS011;3567;52.444;13.556;2023-12-22T11:01:43;13.13;;;2.85;;
7051;SDS011;3567;52.444;13.556;2023-12-22T11:04:12;12.02;;;2.05;;
7051;SDS011;3567;52.444;13.556;2023-12-22T11:06:42;13.73;;;1.77;;
7051;SDS011;3567;52.444;13.556;2023-12-22T11:09:10;12.23;;;1.90;;
7051;SDS011;3567;52.444;13.556;2023-12-22T11:11:38;12.40;;;1.70;;
7051;SDS011;3567;52.444;13.556;2023-12-22T11:14:05;8.93;;;2.03;;
7051;SDS011;3567;52.444;13.556;2023-12-22T11:16:32;11.77;;;1.88;;
7051;SDS011;3567;52.444;13.556;2023-12-22T11:19:00;9.05;;;1.60;;
7051;SDS011;3567;52.444;13.556;2023-12-22T11:21:26;16.63;;;2.55;;
7051;SDS011;3567;52.444;13.556;2023-12-22T11:23:54;13.38;;;1.65;;
7051;SDS011;3567;52.444;13.556;2023-12-22T11:26:20;10.93;;;2.08;;
7051;SDS011;3567;52.444;13.556;2023-12-22T11:28:47;12.75;;;2.05;;
7051;SDS011;3567;52.444;13.556;2023-12-22T11:31:14;8.52;;;1.25;;
7051;SDS011;3567;52.444;13.556;2023-12-22T11:33:43;7.07;;;1.30;;
7051;SDS011;3567;52.444;13.556;2023-12-22T11:36:09;11.98;;;1.63;;
7051;SDS011;3567;52.444;13.556;2023-12-22T11:38:36;9.30;;;1.65;;
7051;SDS011;3567;52.444;13.556;2023-12-22T11:41:02;7.72;;;1.30;;
7051;SDS011;3567;52.444;13.556;2023-12-22T11:43:29;8.70;;;1.55;;
7051;SDS011;3567;52.444;13.556;2023-12-22T11:46:00;10.55;;;1.70;;
7051;SDS011;3567;52.444;13.556;2023-12-22T11:48:29;8.57;;;1.20;;
7051;SDS011;3567;52.444;13.556;2023-12-22T11:50:55;6.15;;;1.50;;
7051;SDS011;3567;52.444;13.556;2023-12-22T11:53:21;12.77;;;2.00;;
7051;SDS011;3567;52.444;13.556;2023-12-22T11:58:37;9.80;;;0.90;;
7051;SDS011;3567;52.444;13.556;2023-12-22T12:01:03;9.80;;;1.67;;
7051;SDS011;3567;52.444;13.556;2023-12-22T12:03:31;33.50;;;3.13;;
7051;SDS011;3567;52.444;13.556;2023-12-22T12:06:09;8.27;;;1.52;;
7051;SDS011;3567;52.444;13.556;2023-12-22T12:08:35;7.63;;;1.80;;
7051;SDS011;3567;52.444;13.556;2023-12-22T12:11:00;9.20;;;1.60;;
7051;SDS011;3567;52.444;13.556;2023-12-22T12:13:28;5.70;;;1.23;;
7051;SDS011;3567;52.444;13.556;2023-12-22T12:15:55;7.88;;;1.23;;
7051;SDS011;3567;52.444;13.556;2023-12-22T12:18:24;9.40;;;1.55;;
7051;SDS011;3567;52.444;13.556;2023-12-22T12:20:52;11.10;;;0.90;;
7051;SDS011;3567;52.444;13.556;2023-12-22T12:23:18;8.38;;;1.10;;
7051;SDS011;3567;52.444;13.556;2023-12-22T12:25:44;9.13;;;1.40;;
7051;SDS011;3567;52.444;13.556;2023-12-22T12:28:09;6.50;;;1.27;;
7051;SDS011;3567;52.444;13.556;2023-12-22T12:30:36;12.18;;;1.00;;
7051;SDS011;3567;52.444;13.556;2023-12-22T12:33:09;12.70;;;2.20;;
7051;SDS011;3567;52.444;13.556;2023-12-22T12:35:36;7.05;;;1.55;;
7051;SDS011;3567;52.444;13.556;2023-12-22T12:38:03;9.18;;;1.27;;
7051;SDS011;3567;52.444;13.556;2023-12-22T12:40:29;8.60;;;1.50;;
7051;SDS011;3567;52.444;13.556;2023-12-22T12:42:55;10.55;;;2.10;;
7051;SDS011;3567;52.444;13.556;2023-12-22T12:45:24;8.55;;;2.00;;
7051;SDS011;3567;52.444;13.556;2023-12-22T12:47:57;7.63;;;1.40;;
7051;SDS011;3567;52.444;13.556;2023-12-22T12:50:27;12.38;;;1.65;;
7051;SDS011;3567;52.444;13.556;2023-12-22T12:52:59;13.90;;;1.92;;
7051;SDS011;3567;52.444;13.556;2023-12-22T12:55:25;9.23;;;1.55;;
7051;SDS011;3567;52.444;13.556;2023-12-22T12:57:51;13.18;;;1.60;;
7051;SDS011;3567;52.444;13.556;2023-12-22T13:00:24;12.27;;;2.67;;
7051;SDS011;3567;52.444;13.556;2023-12-22T13:02:50;6.38;;;1.55;;
7051;SDS011;3567;52.444;13.556;2023-12-22T13:05:22;14.05;;;1.85;;
7051;SDS011;3567;52.444;13.556;2023-12-22T13:07:48;15.23;;;1.92;;
7051;SDS011;3567;52.444;13.556;2023-12-22T13:10:20;15.32;;;2.42;;
7051;SDS011;3567;52.444;13.556;2023-12-22T13:12:52;11.82;;;2.53;;
7051;SDS011;3567;52.444;13.556;2023-12-22T13:15:19;4.75;;;1.00;;
7051;SDS011;3567;52.444;13.556;2023-12-22T13:17:46;8.52;;;1.15;;
7051;SDS011;3567;52.444;13.556;2023-12-22T13:20:11;9.93;;;1.90;;
7051;SDS011;3567;52.444;13.556;2023-12-22T13:22:37;9.65;;;2.00;;
7051;SDS011;3567;52.444;13.556;2023-12-22T13:25:03;10.85;;;1.77;;
7051;SDS011;3567;52.444;13.556;2023-12-22T13:27:29;9.23;;;1.42;;
7051;SDS011;3567;52.444;13.556;2023-12-22T13:29:54;9.07;;;1.50;;
7051;SDS011;3567;52.444;13.556;2023-12-22T13:32:20;13.88;;;2.08;;
7051;SDS011;3567;52.444;13.556;2023-12-22T13:34:50;11.35;;;1.27;;
7051;SDS011;3567;52.444;13.556;2023-12-22T13:37:18;11.20;;;2.05;;
7051;SDS011;3567;52.444;13.556;2023-12-22T13:39:44;12.23;;;1.67;;
7051;SDS011;3567;52.444;13.556;2023-12-22T13:42:17;12.07;;;1.58;;
7051;SDS011;3567;52.444;13.556;2023-12-22T13:44:44;12.30;;;1.20;;
7051;SDS011;3567;52.444;13.556;2023-12-22T13:47:12;10.90;;;1.85;;
7051;SDS011;3567;52.444;13.556;2023-12-22T13:49:38;9.70;;;1.50;;
7051;SDS011;3567;52.444;13.556;2023-12-22T13:52:04;9.32;;;1.88;;
7051;SDS011;3567;52.444;13.556;2023-12-22T13:54:32;12.10;;;2.05;;
7051;SDS011;3567;52.444;13.556;2023-12-22T13:56:59;7.43;;;3.03;;
7051;SDS011;3567;52.444;13.556;2023-12-22T13:59:31;12.55;;;1.85;;
7051;SDS011;3567;52.444;13.556;2023-12-22T14:01:58;9.40;;;1.15;;
7051;SDS011;3567;52.444;13.556;2023-12-22T14:04:23;8.57;;;1.92;;
7051;SDS011;3567;52.444;13.556;2023-12-22T14:06:48;10.27;;;1.95;;
7051;SDS011;3567;52.444;13.556;2023-12-22T14:09:14;14.50;;;1.42;;
7051;SDS011;3567;52.444;13.556;2023-12-22T14:11:40;16.80;;;2.25;;
7051;SDS011;3567;52.444;13.556;2023-12-22T14:14:05;9.68;;;1.45;;
7051;SDS011;3567;52.444;13.556;2023-12-22T14:16:31;10.93;;;1.50;;
7051;SDS011;3567;52.444;13.556;2023-12-22T14:18:56;9.88;;;1.67;;
7051;SDS011;3567;52.444;13.556;2023-12-22T14:21:21;10.90;;;1.40;;
7051;SDS011;3567;52.444;13.556;2023-12-22T14:23:47;9.30;;;1.95;;
7051;SDS011;3567;52.444;13.556;2023-12-22T14:26:12;10.27;;;1.58;;
7051;SDS011;3567;52.444;13.556;2023-12-22T14:28:37;10.25;;;1.30;;
7051;SDS011;3567;52.444;13.556;2023-12-22T14:31:03;7.60;;;1.08;;
7051;SDS011;3567;52.444;13.556;2023-12-22T14:33:28;7.53;;;1.30;;
7051;SDS011;3567;52.444;13.556;2023-12-22T14:35:54;8.73;;;1.33;;
7051;SDS011;3567;52.444;13.556;2023-12-22T14:38:19;9.75;;;1.13;;
7051;SDS011;3567;52.444;13.556;2023-12-22T14:40:45;7.72;;;1.10;;
7051;SDS011;3567;52.444;13.556;2023-12-22T14:43:10;7.15;;;1.05;;
7051;SDS011;3567;52.444;13.556;2023-12-22T14:45:35;4.00;;;0.93;;
7051;SDS011;3567;52.444;13.556;2023-12-22T14:48:01;8.23;;;0.95;;
7051;SDS011;3567;52.444;13.556;2023-12-22T14:50:26;9.73;;;1.23;;
7051;SDS011;3567;52.444;13.556;2023-12-22T14:52:51;8.88;;;1.08;;
7051;SDS011;3567;52.444;13.556;2023-12-22T14:55:17;7.13;;;1.15;;
7051;SDS011;3567;52.444;13.556;2023-12-22T14:57:43;4.20;;;0.98;;
7051;SDS011;3567;52.444;13.556;2023-12-22T15:00:08;6.63;;;1.00;;